sensor_id;sensor_type;location;lat;lon;timestamp;temperature;humidity
71082;SHT31;58740;50.672;18.690;2023-02-01T00:01:12;2.82;84.63
71082;SHT31;58740;50.672;18.690;2023-02-01T00:03:40;2.84;84.63
71082;SHT31;58740;50.672;18.690;2023-02-01T00:06:08;2.87;84.61
71082;SHT31;58740;50.672;18.690;2023-02-01T00:08:36;2.86;84.62
71082;SHT31;58740;50.672;18.690;2023-02-01T00:11:05;2.84;84.56
71082;SHT31;58740;50.672;18.690;2023-02-01T00:13:36;2.81;84.60
71082;SHT31;58740;50.672;18.690;2023-02-01T00:16:11;2.79;84.62
71082;SHT31;58740;50.672;18.690;2023-02-01T00:18:46;2.75;84.60
71082;SHT31;58740;50.672;18.690;2023-02-01T00:21:18;2.72;84.60
71082;SHT31;58740;50.672;18.690;2023-02-01T00:23:49;2.70;84.60
71082;SHT31;58740;50.672;18.690;2023-02-01T00:26:18;2.68;84.59
71082;SHT31;58740;50.672;18.690;2023-02-01T00:28:52;2.64;84.46
71082;SHT31;58740;50.672;18.690;2023-02-01T00:31:20;2.59;84.42
71082;SHT31;58740;50.672;18.690;2023-02-01T00:33:48;2.57;84.38
71082;SHT31;58740;50.672;18.690;2023-02-01T00:36:17;2.56;84.33
71082;SHT31;58740;50.672;18.690;2023-02-01T00:38:45;2.55;84.26
71082;SHT31;58740;50.672;18.690;2023-02-01T00:41:16;2.54;84.13
71082;SHT31;58740;50.672;18.690;2023-02-01T00:43:47;2.53;83.89
71082;SHT31;58740;50.672;18.690;2023-02-01T00:46:16;2.50;83.66
71082;SHT31;58740;50.672;18.690;2023-02-01T00:48:46;2.47;83.66
71082;SHT31;58740;50.672;18.690;2023-02-01T00:51:16;2.44;83.58
71082;SHT31;58740;50.672;18.690;2023-02-01T00:53:47;2.43;83.58
71082;SHT31;58740;50.672;18.690;2023-02-01T00:56:16;2.42;83.61
71082;SHT31;58740;50.672;18.690;2023-02-01T00:58:45;2.41;83.53
71082;SHT31;58740;50.672;18.690;2023-02-01T01:01:14;2.42;83.54
71082;SHT31;58740;50.672;18.690;2023-02-01T01:03:53;2.43;83.52
71082;SHT31;58740;50.672;18.690;2023-02-01T01:06:25;2.40;83.50
71082;SHT31;58740;50.672;18.690;2023-02-01T01:08:57;2.39;83.50
71082;SHT31;58740;50.672;18.690;2023-02-01T01:11:29;2.35;83.50
71082;SHT31;58740;50.672;18.690;2023-02-01T01:14:01;2.33;83.52
71082;SHT31;58740;50.672;18.690;2023-02-01T01:16:32;2.31;83.55
71082;SHT31;58740;50.672;18.690;2023-02-01T01:19:01;2.32;83.57
71082;SHT31;58740;50.672;18.690;2023-02-01T01:21:29;2.33;83.60
71082;SHT31;58740;50.672;18.690;2023-02-01T01:23:57;2.33;83.56
71082;SHT31;58740;50.672;18.690;2023-02-01T01:26:26;2.33;83.60
71082;SHT31;58740;50.672;18.690;2023-02-01T01:28:57;2.34;83.60
71082;SHT31;58740;50.672;18.690;2023-02-01T01:31:26;2.33;83.64
71082;SHT31;58740;50.672;18.690;2023-02-01T01:33:57;2.33;83.69
71082;SHT31;58740;50.672;18.690;2023-02-01T01:36:27;2.32;83.70
71082;SHT31;58740;50.672;18.690;2023-02-01T01:38:55;2.33;83.70
71082;SHT31;58740;50.672;18.690;2023-02-01T01:41:29;2.34;83.73
71082;SHT31;58740;50.672;18.690;2023-02-01T01:44:00;2.35;83.70
71082;SHT31;58740;50.672;18.690;2023-02-01T01:46:34;2.39;83.73
71082;SHT31;58740;50.672;18.690;2023-02-01T01:49:12;2.42;83.70
71082;SHT31;58740;50.672;18.690;2023-02-01T01:51:47;2.43;83.67
71082;SHT31;58740;50.672;18.690;2023-02-01T01:54:33;2.43;83.64
71082;SHT31;58740;50.672;18.690;2023-02-01T01:57:09;2.44;83.60
71082;SHT31;58740;50.672;18.690;2023-02-01T02:00:09;2.43;83.60
71082;SHT31;58740;50.672;18.690;2023-02-01T02:02:41;2.41;83.61
71082;SHT31;58740;50.672;18.690;2023-02-01T02:05:14;2.42;83.59
71082;SHT31;58740;50.672;18.690;2023-02-01T02:07:46;2.42;83.59
71082;SHT31;58740;50.672;18.690;2023-02-01T02:10:16;2.46;83.57
71082;SHT31;58740;50.672;18.690;2023-02-01T02:12:45;2.49;83.48
71082;SHT31;58740;50.672;18.690;2023-02-01T02:15:17;2.50;83.43
71082;SHT31;58740;50.672;18.690;2023-02-01T02:17:59;2.53;83.45
71082;SHT31;58740;50.672;18.690;2023-02-01T02:20:52;2.54;83.39
71082;SHT31;58740;50.672;18.690;2023-02-01T02:23:49;2.55;83.38
71082;SHT31;58740;50.672;18.690;2023-02-01T02:27:05;2.52;83.43
71082;SHT31;58740;50.672;18.690;2023-02-01T02:38:54;2.49;83.68
71082;SHT31;58740;50.672;18.690;2023-02-01T02:44:47;2.57;83.50
71082;SHT31;58740;50.672;18.690;2023-02-01T02:47:52;2.57;83.50
71082;SHT31;58740;50.672;18.690;2023-02-01T02:53:38;2.54;83.50
71082;SHT31;58740;50.672;18.690;2023-02-01T02:56:51;2.54;83.50
71082;SHT31;58740;50.672;18.690;2023-02-01T02:59:41;2.56;83.50
71082;SHT31;58740;50.672;18.690;2023-02-01T03:02:31;2.57;83.49
71082;SHT31;58740;50.672;18.690;2023-02-01T03:05:20;2.61;83.43
71082;SHT31;58740;50.672;18.690;2023-02-01T03:08:01;2.63;83.39
71082;SHT31;58740;50.672;18.690;2023-02-01T03:13:40;2.64;83.24
71082;SHT31;58740;50.672;18.690;2023-02-01T03:22:07;2.59;83.19
71082;SHT31;58740;50.672;18.690;2023-02-01T03:24:43;2.59;83.07
71082;SHT31;58740;50.672;18.690;2023-02-01T03:27:18;2.58;82.99
71082;SHT31;58740;50.672;18.690;2023-02-01T03:29:59;2.58;82.95
71082;SHT31;58740;50.672;18.690;2023-02-01T03:32:34;2.56;82.96
71082;SHT31;58740;50.672;18.690;2023-02-01T03:41:58;2.49;83.16
71082;SHT31;58740;50.672;18.690;2023-02-01T03:44:34;2.49;83.20
71082;SHT31;58740;50.672;18.690;2023-02-01T03:49:53;2.51;83.17
71082;SHT31;58740;50.672;18.690;2023-02-01T03:52:41;2.51;83.19
71082;SHT31;58740;50.672;18.690;2023-02-01T03:55:19;2.53;83.20
71082;SHT31;58740;50.672;18.690;2023-02-01T03:57:52;2.53;83.20
71082;SHT31;58740;50.672;18.690;2023-02-01T04:00:31;2.53;83.25
71082;SHT31;58740;50.672;18.690;2023-02-01T04:02:59;2.51;83.32
71082;SHT31;58740;50.672;18.690;2023-02-01T04:05:27;2.49;83.39
71082;SHT31;58740;50.672;18.690;2023-02-01T04:07:54;2.49;83.40
71082;SHT31;58740;50.672;18.690;2023-02-01T04:10:22;2.48;83.41
71082;SHT31;58740;50.672;18.690;2023-02-01T04:12:51;2.49;83.47
71082;SHT31;58740;50.672;18.690;2023-02-01T04:15:19;2.50;83.50
71082;SHT31;58740;50.672;18.690;2023-02-01T04:17:47;2.51;83.50
71082;SHT31;58740;50.672;18.690;2023-02-01T04:20:14;2.53;83.41
71082;SHT31;58740;50.672;18.690;2023-02-01T04:22:43;2.53;83.40
71082;SHT31;58740;50.672;18.690;2023-02-01T04:25:11;2.51;83.34
71082;SHT31;58740;50.672;18.690;2023-02-01T04:27:38;2.51;83.39
71082;SHT31;58740;50.672;18.690;2023-02-01T04:30:09;2.49;83.39
71082;SHT31;58740;50.672;18.690;2023-02-01T04:32:38;2.49;83.37
71082;SHT31;58740;50.672;18.690;2023-02-01T04:35:06;2.52;83.31
71082;SHT31;58740;50.672;18.690;2023-02-01T04:37:35;2.53;83.30
71082;SHT31;58740;50.672;18.690;2023-02-01T04:40:04;2.53;83.21
71082;SHT31;58740;50.672;18.690;2023-02-01T04:42:33;2.52;83.18
71082;SHT31;58740;50.672;18.690;2023-02-01T04:45:00;2.51;83.06
71082;SHT31;58740;50.672;18.690;2023-02-01T04:47:29;2.51;83.08
71082;SHT31;58740;50.672;18.690;2023-02-01T04:49:56;2.50;83.00
71082;SHT31;58740;50.672;18.690;2023-02-01T04:52:24;2.47;82.91
71082;SHT31;58740;50.672;18.690;2023-02-01T04:54:52;2.45;82.90
71082;SHT31;58740;50.672;18.690;2023-02-01T04:57:23;2.46;82.85
71082;SHT31;58740;50.672;18.690;2023-02-01T04:59:51;2.46;82.78
71082;SHT31;58740;50.672;18.690;2023-02-01T05:02:19;2.47;82.81
71082;SHT31;58740;50.672;18.690;2023-02-01T05:04:47;2.50;82.78
71082;SHT31;58740;50.672;18.690;2023-02-01T05:07:14;2.49;82.70
71082;SHT31;58740;50.672;18.690;2023-02-01T05:09:42;2.48;82.71
71082;SHT31;58740;50.672;18.690;2023-02-01T05:12:10;2.48;82.62
71082;SHT31;58740;50.672;18.690;2023-02-01T05:14:59;2.44;82.53
71082;SHT31;58740;50.672;18.690;2023-02-01T05:17:27;2.41;82.57
71082;SHT31;58740;50.672;18.690;2023-02-01T05:19:55;2.40;82.52
71082;SHT31;58740;50.672;18.690;2023-02-01T05:22:22;2.39;82.51
71082;SHT31;58740;50.672;18.690;2023-02-01T05:24:50;2.40;82.35
71082;SHT31;58740;50.672;18.690;2023-02-01T05:27:18;2.40;82.21
71082;SHT31;58740;50.672;18.690;2023-02-01T05:29:46;2.42;82.29
71082;SHT31;58740;50.672;18.690;2023-02-01T05:32:13;2.42;82.19
71082;SHT31;58740;50.672;18.690;2023-02-01T05:34:49;2.41;82.20
71082;SHT31;58740;50.672;18.690;2023-02-01T05:37:17;2.39;82.12
71082;SHT31;58740;50.672;18.690;2023-02-01T05:39:45;2.37;82.12
71082;SHT31;58740;50.672;18.690;2023-02-01T05:42:13;2.36;82.20
71082;SHT31;58740;50.672;18.690;2023-02-01T05:44:40;2.36;82.17
71082;SHT31;58740;50.672;18.690;2023-02-01T05:47:08;2.37;82.10
71082;SHT31;58740;50.672;18.690;2023-02-01T05:49:36;2.40;82.05
71082;SHT31;58740;50.672;18.690;2023-02-01T05:52:04;2.43;81.92
71082;SHT31;58740;50.672;18.690;2023-02-01T05:54:32;2.44;81.81
71082;SHT31;58740;50.672;18.690;2023-02-01T05:57:00;2.46;81.79
71082;SHT31;58740;50.672;18.690;2023-02-01T05:59:28;2.47;81.73
71082;SHT31;58740;50.672;18.690;2023-02-01T06:01:58;2.47;81.64
71082;SHT31;58740;50.672;18.690;2023-02-01T06:04:26;2.48;81.61
71082;SHT31;58740;50.672;18.690;2023-02-01T06:06:54;2.49;81.50
71082;SHT31;58740;50.672;18.690;2023-02-01T06:09:21;2.51;81.52
71082;SHT31;58740;50.672;18.690;2023-02-01T06:11:49;2.54;81.44
71082;SHT31;58740;50.672;18.690;2023-02-01T06:14:17;2.56;81.42
71082;SHT31;58740;50.672;18.690;2023-02-01T06:16:45;2.59;81.39
71082;SHT31;58740;50.672;18.690;2023-02-01T06:19:13;2.59;81.29
71082;SHT31;58740;50.672;18.690;2023-02-01T06:21:41;2.56;81.23
71082;SHT31;58740;50.672;18.690;2023-02-01T06:24:09;2.55;81.33
71082;SHT31;58740;50.672;18.690;2023-02-01T06:26:37;2.55;81.33
71082;SHT31;58740;50.672;18.690;2023-02-01T06:29:06;2.54;81.23
71082;SHT31;58740;50.672;18.690;2023-02-01T06:31:37;2.55;81.24
71082;SHT31;58740;50.672;18.690;2023-02-01T06:34:05;2.59;81.10
71082;SHT31;58740;50.672;18.690;2023-02-01T06:36:32;2.60;81.02
71082;SHT31;58740;50.672;18.690;2023-02-01T06:39:03;2.62;81.07
71082;SHT31;58740;50.672;18.690;2023-02-01T06:41:31;2.63;81.03
71082;SHT31;58740;50.672;18.690;2023-02-01T06:43:58;2.63;81.06
71082;SHT31;58740;50.672;18.690;2023-02-01T06:46:28;2.62;80.93
71082;SHT31;58740;50.672;18.690;2023-02-01T06:48:56;2.61;80.93
71082;SHT31;58740;50.672;18.690;2023-02-01T06:51:24;2.60;80.95
71082;SHT31;58740;50.672;18.690;2023-02-01T06:53:55;2.62;81.00
71082;SHT31;58740;50.672;18.690;2023-02-01T06:56:24;2.64;80.95
71082;SHT31;58740;50.672;18.690;2023-02-01T06:58:52;2.67;80.87
71082;SHT31;58740;50.672;18.690;2023-02-01T07:01:21;2.69;80.87
71082;SHT31;58740;50.672;18.690;2023-02-01T07:03:49;2.71;80.84
71082;SHT31;58740;50.672;18.690;2023-02-01T07:06:18;2.70;80.76
71082;SHT31;58740;50.672;18.690;2023-02-01T07:08:46;2.70;80.83
71082;SHT31;58740;50.672;18.690;2023-02-01T07:11:15;2.69;80.87
71082;SHT31;58740;50.672;18.690;2023-02-01T07:13:45;2.68;80.96
71082;SHT31;58740;50.672;18.690;2023-02-01T07:16:14;2.68;80.92
71082;SHT31;58740;50.672;18.690;2023-02-01T07:18:45;2.67;80.79
71082;SHT31;58740;50.672;18.690;2023-02-01T07:21:14;2.68;80.85
71082;SHT31;58740;50.672;18.690;2023-02-01T07:23:42;2.71;80.90
71082;SHT31;58740;50.672;18.690;2023-02-01T07:26:13;2.73;80.82
71082;SHT31;58740;50.672;18.690;2023-02-01T07:28:41;2.75;80.76
71082;SHT31;58740;50.672;18.690;2023-02-01T07:31:14;2.76;80.79
71082;SHT31;58740;50.672;18.690;2023-02-01T07:33:46;2.75;80.67
71082;SHT31;58740;50.672;18.690;2023-02-01T07:36:16;2.73;80.69
71082;SHT31;58740;50.672;18.690;2023-02-01T07:38:45;2.72;80.72
71082;SHT31;58740;50.672;18.690;2023-02-01T07:41:17;2.71;80.80
71082;SHT31;58740;50.672;18.690;2023-02-01T07:43:45;2.74;80.73
71082;SHT31;58740;50.672;18.690;2023-02-01T07:46:13;2.76;80.72
71082;SHT31;58740;50.672;18.690;2023-02-01T07:48:42;2.81;80.74
71082;SHT31;58740;50.672;18.690;2023-02-01T07:51:12;2.84;80.60
71082;SHT31;58740;50.672;18.690;2023-02-01T07:53:42;2.85;80.53
71082;SHT31;58740;50.672;18.690;2023-02-01T07:56:12;2.86;80.58
71082;SHT31;58740;50.672;18.690;2023-02-01T07:58:46;2.86;80.50
71082;SHT31;58740;50.672;18.690;2023-02-01T08:01:19;2.85;80.43
71082;SHT31;58740;50.672;18.690;2023-02-01T08:03:55;2.84;80.50
71082;SHT31;58740;50.672;18.690;2023-02-01T08:06:27;2.85;80.37
71082;SHT31;58740;50.672;18.690;2023-02-01T08:08:58;2.88;80.43
71082;SHT31;58740;50.672;18.690;2023-02-01T08:11:27;2.91;80.36
71082;SHT31;58740;50.672;18.690;2023-02-01T08:13:55;2.93;80.36
71082;SHT31;58740;50.672;18.690;2023-02-01T08:16:23;2.94;80.43
71082;SHT31;58740;50.672;18.690;2023-02-01T08:18:52;2.95;80.38
71082;SHT31;58740;50.672;18.690;2023-02-01T08:21:22;2.95;80.40
71082;SHT31;58740;50.672;18.690;2023-02-01T08:23:53;2.95;80.47
71082;SHT31;58740;50.672;18.690;2023-02-01T08:26:22;2.95;80.47
71082;SHT31;58740;50.672;18.690;2023-02-01T08:28:57;2.96;80.48
71082;SHT31;58740;50.672;18.690;2023-02-01T08:31:28;2.98;80.44
71082;SHT31;58740;50.672;18.690;2023-02-01T08:33:58;3.01;80.45
71082;SHT31;58740;50.672;18.690;2023-02-01T08:36:35;3.05;80.45
71082;SHT31;58740;50.672;18.690;2023-02-01T08:39:05;3.09;80.33
71082;SHT31;58740;50.672;18.690;2023-02-01T08:41:36;3.11;80.29
71082;SHT31;58740;50.672;18.690;2023-02-01T08:44:05;3.12;80.26
71082;SHT31;58740;50.672;18.690;2023-02-01T08:46:33;3.12;80.23
71082;SHT31;58740;50.672;18.690;2023-02-01T08:49:00;3.14;80.26
71082;SHT31;58740;50.672;18.690;2023-02-01T08:51:28;3.11;80.29
71082;SHT31;58740;50.672;18.690;2023-02-01T08:53:56;3.11;80.28
71082;SHT31;58740;50.672;18.690;2023-02-01T08:56:23;3.11;80.31
71082;SHT31;58740;50.672;18.690;2023-02-01T08:58:51;3.13;80.32
71082;SHT31;58740;50.672;18.690;2023-02-01T09:01:19;3.14;80.34
71082;SHT31;58740;50.672;18.690;2023-02-01T09:03:47;3.14;80.40
71082;SHT31;58740;50.672;18.690;2023-02-01T09:06:15;3.12;80.43
71082;SHT31;58740;50.672;18.690;2023-02-01T09:08:46;3.11;80.34
71082;SHT31;58740;50.672;18.690;2023-02-01T09:11:14;3.12;80.50
71082;SHT31;58740;50.672;18.690;2023-02-01T09:13:48;3.11;80.53
71082;SHT31;58740;50.672;18.690;2023-02-01T09:16:16;3.13;80.51
71082;SHT31;58740;50.672;18.690;2023-02-01T09:18:44;3.16;80.48
71082;SHT31;58740;50.672;18.690;2023-02-01T09:21:32;3.20;80.44
71082;SHT31;58740;50.672;18.690;2023-02-01T09:24:00;3.24;80.34
71082;SHT31;58740;50.672;18.690;2023-02-01T09:26:28;3.28;80.30
71082;SHT31;58740;50.672;18.690;2023-02-01T09:28:59;3.33;80.20
71082;SHT31;58740;50.672;18.690;2023-02-01T09:31:28;3.35;80.20
71082;SHT31;58740;50.672;18.690;2023-02-01T09:33:57;3.37;80.18
71082;SHT31;58740;50.672;18.690;2023-02-01T09:36:25;3.40;80.22
71082;SHT31;58740;50.672;18.690;2023-02-01T09:38:57;3.43;80.14
71082;SHT31;58740;50.672;18.690;2023-02-01T09:47:24;3.60;79.77
71082;SHT31;58740;50.672;18.690;2023-02-01T09:49:56;3.65;79.70
71082;SHT31;58740;50.672;18.690;2023-02-01T09:52:38;3.69;79.50
71082;SHT31;58740;50.672;18.690;2023-02-01T09:55:32;3.73;79.50
71082;SHT31;58740;50.672;18.690;2023-02-01T10:00:47;3.74;79.35
71082;SHT31;58740;50.672;18.690;2023-02-01T10:03:23;3.74;79.31
71082;SHT31;58740;50.672;18.690;2023-02-01T10:23:49;3.73;79.01
71082;SHT31;58740;50.672;18.690;2023-02-01T10:26:45;3.70;78.87
71082;SHT31;58740;50.672;18.690;2023-02-01T10:29:20;3.69;78.97
71082;SHT31;58740;50.672;18.690;2023-02-01T10:31:54;3.67;79.01
71082;SHT31;58740;50.672;18.690;2023-02-01T10:34:32;3.66;79.03
71082;SHT31;58740;50.672;18.690;2023-02-01T10:37:18;3.65;79.19
71082;SHT31;58740;50.672;18.690;2023-02-01T10:39:55;3.62;79.33
71082;SHT31;58740;50.672;18.690;2023-02-01T10:42:26;3.63;79.35
71082;SHT31;58740;50.672;18.690;2023-02-01T10:44:57;3.64;79.45
71082;SHT31;58740;50.672;18.690;2023-02-01T10:47:30;3.68;79.62
71082;SHT31;58740;50.672;18.690;2023-02-01T10:50:02;3.71;79.60
71082;SHT31;58740;50.672;18.690;2023-02-01T10:52:46;3.73;79.82
71082;SHT31;58740;50.672;18.690;2023-02-01T10:55:29;3.74;79.95
71082;SHT31;58740;50.672;18.690;2023-02-01T10:58:27;3.76;80.17
71082;SHT31;58740;50.672;18.690;2023-02-01T11:01:03;3.76;80.19
71082;SHT31;58740;50.672;18.690;2023-02-01T11:03:41;3.74;80.23
71082;SHT31;58740;50.672;18.690;2023-02-01T11:11:52;3.75;80.44
71082;SHT31;58740;50.672;18.690;2023-02-01T11:16:57;3.73;80.80
71082;SHT31;58740;50.672;18.690;2023-02-01T11:19:28;3.73;81.12
71082;SHT31;58740;50.672;18.690;2023-02-01T11:21:57;3.74;81.22
71082;SHT31;58740;50.672;18.690;2023-02-01T11:24:29;3.79;81.33
71082;SHT31;58740;50.672;18.690;2023-02-01T11:27:03;3.82;81.48
71082;SHT31;58740;50.672;18.690;2023-02-01T11:29:52;3.87;81.55
71082;SHT31;58740;50.672;18.690;2023-02-01T11:32:24;3.91;81.54
71082;SHT31;58740;50.672;18.690;2023-02-01T11:34:59;3.94;81.57
71082;SHT31;58740;50.672;18.690;2023-02-01T11:37:34;3.95;81.35
71082;SHT31;58740;50.672;18.690;2023-02-01T11:42:58;3.95;81.39
71082;SHT31;58740;50.672;18.690;2023-02-01T11:45:34;3.97;81.52
71082;SHT31;58740;50.672;18.690;2023-02-01T11:48:08;4.00;81.54
71082;SHT31;58740;50.672;18.690;2023-02-01T11:57:06;4.07;81.28
71082;SHT31;58740;50.672;18.690;2023-02-01T12:02:36;4.10;80.79
71082;SHT31;58740;50.672;18.690;2023-02-01T12:08:16;4.07;80.48
71082;SHT31;58740;50.672;18.690;2023-02-01T12:11:29;4.05;80.41
71082;SHT31;58740;50.672;18.690;2023-02-01T12:14:20;4.03;80.40
71082;SHT31;58740;50.672;18.690;2023-02-01T12:17:17;4.03;80.23
71082;SHT31;58740;50.672;18.690;2023-02-01T12:23:30;4.03;80.08
71082;SHT31;58740;50.672;18.690;2023-02-01T12:43:22;4.04;79.31
71082;SHT31;58740;50.672;18.690;2023-02-01T12:46:07;4.07;79.36
71082;SHT31;58740;50.672;18.690;2023-02-01T12:51:59;4.12;79.16
71082;SHT31;58740;50.672;18.690;2023-02-01T12:54:36;4.16;79.19
71082;SHT31;58740;50.672;18.690;2023-02-01T12:57:17;4.16;79.18
71082;SHT31;58740;50.672;18.690;2023-02-01T13:00:16;4.13;79.28
71082;SHT31;58740;50.672;18.690;2023-02-01T13:05:53;4.00;79.68
71082;SHT31;58740;50.672;18.690;2023-02-01T13:14:32;3.84;80.34
71082;SHT31;58740;50.672;18.690;2023-02-01T13:17:00;3.81;80.70
71082;SHT31;58740;50.672;18.690;2023-02-01T13:19:45;3.81;80.93
71082;SHT31;58740;50.672;18.690;2023-02-01T13:25:15;3.75;81.26
71082;SHT31;58740;50.672;18.690;2023-02-01T13:27:54;3.71;81.37
71082;SHT31;58740;50.672;18.690;2023-02-01T13:30:38;3.69;81.63
71082;SHT31;58740;50.672;18.690;2023-02-01T13:33:47;3.68;81.65
71082;SHT31;58740;50.672;18.690;2023-02-01T13:42:33;3.68;81.97
71082;SHT31;58740;50.672;18.690;2023-02-01T13:45:19;3.65;82.09
71082;SHT31;58740;50.672;18.690;2023-02-01T13:47:53;3.60;82.20
71082;SHT31;58740;50.672;18.690;2023-02-01T13:50:27;3.56;82.32
71082;SHT31;58740;50.672;18.690;2023-02-01T13:55:40;3.54;82.50
71082;SHT31;58740;50.672;18.690;2023-02-01T13:58:14;3.52;82.41
71082;SHT31;58740;50.672;18.690;2023-02-01T14:00:48;3.48;82.37
71082;SHT31;58740;50.672;18.690;2023-02-01T14:03:22;3.45;82.44
71082;SHT31;58740;50.672;18.690;2023-02-01T14:06:14;3.42;82.42
71082;SHT31;58740;50.672;18.690;2023-02-01T14:11:45;3.36;82.56
71082;SHT31;58740;50.672;18.690;2023-02-01T14:14:54;3.31;82.76
71082;SHT31;58740;50.672;18.690;2023-02-01T14:17:52;3.29;82.94
71082;SHT31;58740;50.672;18.690;2023-02-01T14:20:41;3.28;83.06
71082;SHT31;58740;50.672;18.690;2023-02-01T14:23:17;3.31;83.16
71082;SHT31;58740;50.672;18.690;2023-02-01T14:25:58;3.30;83.27
71082;SHT31;58740;50.672;18.690;2023-02-01T14:28:50;3.31;83.39
71082;SHT31;58740;50.672;18.690;2023-02-01T14:42:18;3.27;83.76
71082;SHT31;58740;50.672;18.690;2023-02-01T14:44:56;3.28;83.70
71082;SHT31;58740;50.672;18.690;2023-02-01T14:50:34;3.33;83.61
71082;SHT31;58740;50.672;18.690;2023-02-01T14:58:56;3.39;83.42
71082;SHT31;58740;50.672;18.690;2023-02-01T15:01:34;3.39;83.39
71082;SHT31;58740;50.672;18.690;2023-02-01T15:04:09;3.38;83.48
71082;SHT31;58740;50.672;18.690;2023-02-01T15:09:31;3.39;83.56
71082;SHT31;58740;50.672;18.690;2023-02-01T15:15:11;3.43;83.46
71082;SHT31;58740;50.672;18.690;2023-02-01T15:20:24;3.45;83.49
71082;SHT31;58740;50.672;18.690;2023-02-01T15:25:33;3.42;83.59
71082;SHT31;58740;50.672;18.690;2023-02-01T15:28:08;3.40;83.60
71082;SHT31;58740;50.672;18.690;2023-02-01T15:31:02;3.40;83.60
71082;SHT31;58740;50.672;18.690;2023-02-01T15:33:33;3.42;83.61
71082;SHT31;58740;50.672;18.690;2023-02-01T15:36:07;3.44;83.60
71082;SHT31;58740;50.672;18.690;2023-02-01T15:38:44;3.48;83.60
71082;SHT31;58740;50.672;18.690;2023-02-01T15:46:31;3.56;83.56
71082;SHT31;58740;50.672;18.690;2023-02-01T15:49:15;3.56;83.52
71082;SHT31;58740;50.672;18.690;2023-02-01T15:52:00;3.53;83.64
71082;SHT31;58740;50.672;18.690;2023-02-01T15:54:41;3.52;83.68
71082;SHT31;58740;50.672;18.690;2023-02-01T15:57:23;3.54;83.67
71082;SHT31;58740;50.672;18.690;2023-02-01T16:02:55;3.59;83.72
71082;SHT31;58740;50.672;18.690;2023-02-01T16:05:37;3.61;83.70
71082;SHT31;58740;50.672;18.690;2023-02-01T16:08:10;3.62;83.71
71082;SHT31;58740;50.672;18.690;2023-02-01T16:10:50;3.61;83.73
71082;SHT31;58740;50.672;18.690;2023-02-01T16:13:40;3.58;83.70
71082;SHT31;58740;50.672;18.690;2023-02-01T16:16:08;3.55;83.69
71082;SHT31;58740;50.672;18.690;2023-02-01T16:18:44;3.54;83.62
71082;SHT31;58740;50.672;18.690;2023-02-01T16:21:22;3.54;83.61
71082;SHT31;58740;50.672;18.690;2023-02-01T16:23:50;3.55;83.60
71082;SHT31;58740;50.672;18.690;2023-02-01T16:26:20;3.58;83.58
71082;SHT31;58740;50.672;18.690;2023-02-01T16:28:48;3.59;83.52
71082;SHT31;58740;50.672;18.690;2023-02-01T16:31:17;3.60;83.48
71082;SHT31;58740;50.672;18.690;2023-02-01T16:33:56;3.61;83.40
71082;SHT31;58740;50.672;18.690;2023-02-01T16:36:25;3.58;83.33
71082;SHT31;58740;50.672;18.690;2023-02-01T16:38:54;3.56;83.36
71082;SHT31;58740;50.672;18.690;2023-02-01T16:41:23;3.55;83.30
71082;SHT31;58740;50.672;18.690;2023-02-01T16:43:53;3.54;83.36
71082;SHT31;58740;50.672;18.690;2023-02-01T16:46:23;3.53;83.39
71082;SHT31;58740;50.672;18.690;2023-02-01T16:48:56;3.55;83.38
71082;SHT31;58740;50.672;18.690;2023-02-01T16:51:27;3.56;83.33
71082;SHT31;58740;50.672;18.690;2023-02-01T16:54:00;3.57;83.36
71082;SHT31;58740;50.672;18.690;2023-02-01T16:56:29;3.55;83.34
71082;SHT31;58740;50.672;18.690;2023-02-01T16:59:00;3.55;83.40
71082;SHT31;58740;50.672;18.690;2023-02-01T17:01:29;3.53;83.36
71082;SHT31;58740;50.672;18.690;2023-02-01T17:03:58;3.51;83.38
71082;SHT31;58740;50.672;18.690;2023-02-01T17:06:26;3.52;83.39
71082;SHT31;58740;50.672;18.690;2023-02-01T17:08:55;3.50;83.41
71082;SHT31;58740;50.672;18.690;2023-02-01T17:11:27;3.52;83.36
71082;SHT31;58740;50.672;18.690;2023-02-01T17:16:45;3.54;83.23
71082;SHT31;58740;50.672;18.690;2023-02-01T17:19:17;3.56;83.20
71082;SHT31;58740;50.672;18.690;2023-02-01T17:21:54;3.53;83.12
71082;SHT31;58740;50.672;18.690;2023-02-01T17:24:27;3.50;83.12
71082;SHT31;58740;50.672;18.690;2023-02-01T17:27:14;3.48;83.18
71082;SHT31;58740;50.672;18.690;2023-02-01T17:29:44;3.48;83.19
71082;SHT31;58740;50.672;18.690;2023-02-01T17:32:21;3.48;83.20
71082;SHT31;58740;50.672;18.690;2023-02-01T17:34:52;3.48;83.24
71082;SHT31;58740;50.672;18.690;2023-02-01T17:39:54;3.49;83.14
71082;SHT31;58740;50.672;18.690;2023-02-01T17:42:23;3.52;83.08
71082;SHT31;58740;50.672;18.690;2023-02-01T17:44:57;3.53;83.09
71082;SHT31;58740;50.672;18.690;2023-02-01T17:47:48;3.53;83.03
71082;SHT31;58740;50.672;18.690;2023-02-01T17:50:16;3.53;83.05
71082;SHT31;58740;50.672;18.690;2023-02-01T17:52:44;3.53;82.97
71082;SHT31;58740;50.672;18.690;2023-02-01T17:55:15;3.50;82.99
71082;SHT31;58740;50.672;18.690;2023-02-01T17:57:49;3.49;83.01
71082;SHT31;58740;50.672;18.690;2023-02-01T18:00:17;3.49;83.00
71082;SHT31;58740;50.672;18.690;2023-02-01T18:02:46;3.50;83.00
71082;SHT31;58740;50.672;18.690;2023-02-01T18:05:21;3.50;82.97
71082;SHT31;58740;50.672;18.690;2023-02-01T18:07:56;3.51;82.91
71082;SHT31;58740;50.672;18.690;2023-02-01T18:10:23;3.50;82.91
71082;SHT31;58740;50.672;18.690;2023-02-01T18:12:51;3.46;82.91
71082;SHT31;58740;50.672;18.690;2023-02-01T18:15:20;3.43;82.91
71082;SHT31;58740;50.672;18.690;2023-02-01T18:17:51;3.38;82.92
71082;SHT31;58740;50.672;18.690;2023-02-01T18:20:20;3.34;83.01
71082;SHT31;58740;50.672;18.690;2023-02-01T18:22:51;3.34;82.99
71082;SHT31;58740;50.672;18.690;2023-02-01T18:25:23;3.32;82.96
71082;SHT31;58740;50.672;18.690;2023-02-01T18:27:54;3.31;83.00
71082;SHT31;58740;50.672;18.690;2023-02-01T18:30:24;3.31;83.00
71082;SHT31;58740;50.672;18.690;2023-02-01T18:32:58;3.31;82.96
71082;SHT31;58740;50.672;18.690;2023-02-01T18:35:28;3.30;82.92
71082;SHT31;58740;50.672;18.690;2023-02-01T18:37:59;3.27;82.90
71082;SHT31;58740;50.672;18.690;2023-02-01T18:40:29;3.23;82.86
71082;SHT31;58740;50.672;18.690;2023-02-01T18:43:02;3.18;82.90
71082;SHT31;58740;50.672;18.690;2023-02-01T18:45:40;3.13;82.97
71082;SHT31;58740;50.672;18.690;2023-02-01T18:48:12;3.11;83.00
71082;SHT31;58740;50.672;18.690;2023-02-01T18:50:43;3.10;83.01
71082;SHT31;58740;50.672;18.690;2023-02-01T18:53:16;3.09;83.00
71082;SHT31;58740;50.672;18.690;2023-02-01T18:55:47;3.09;83.00
71082;SHT31;58740;50.672;18.690;2023-02-01T18:58:15;3.10;83.04
71082;SHT31;58740;50.672;18.690;2023-02-01T19:00:45;3.11;82.86
71082;SHT31;58740;50.672;18.690;2023-02-01T19:03:14;3.07;82.86
71082;SHT31;58740;50.672;18.690;2023-02-01T19:05:42;3.05;82.98